sensor_id;sensor_type;location;lat;lon;timestamp;P1;durP1;ratioP1;P2;durP2;ratioP2
24159;SDS011;62385;41.594;23.808;2023-08-31T00:00:50;2.88;;;1.52;;
24159;SDS011;62385;41.594;23.808;2023-08-31T00:03:16;1.83;;;1.45;;
24159;SDS011;62385;41.594;23.808;2023-08-31T00:05:42;1.80;;;1.50;;
24159;SDS011;62385;41.594;23.808;2023-08-31T00:08:09;2.00;;;1.42;;
24159;SDS011;62385;41.594;23.808;2023-08-31T00:10:36;3.78;;;1.60;;
24159;SDS011;62385;41.594;23.808;2023-08-31T00:13:02;1.15;;;0.80;;
24159;SDS011;62385;41.594;23.808;2023-08-31T00:15:29;4.78;;;1.70;;
24159;SDS011;62385;41.594;23.808;2023-08-31T00:17:57;2.10;;;1.27;;
24159;SDS011;62385;41.594;23.808;2023-08-31T00:20:29;3.75;;;1.27;;
24159;SDS011;62385;41.594;23.808;2023-08-31T00:22:55;4.80;;;1.38;;
24159;SDS011;62385;41.594;23.808;2023-08-31T00:25:21;2.03;;;1.33;;
24159;SDS011;62385;41.594;23.808;2023-08-31T00:27:46;1.33;;;1.23;;
24159;SDS011;62385;41.594;23.808;2023-08-31T00:30:13;2.78;;;1.13;;
24159;SDS011;62385;41.594;23.808;2023-08-31T00:32:39;4.65;;;1.70;;
24159;SDS011;62385;41.594;23.808;2023-08-31T00:35:08;2.58;;;1.10;;
24159;SDS011;62385;41.594;23.808;2023-08-31T00:37:34;1.63;;;1.25;;
24159;SDS011;62385;41.594;23.808;2023-08-31T00:39:59;1.98;;;1.30;;
24159;SDS011;62385;41.594;23.808;2023-08-31T00:42:25;2.75;;;1.25;;
24159;SDS011;62385;41.594;23.808;2023-08-31T00:44:52;1.77;;;1.05;;
24159;SDS011;62385;41.594;23.808;2023-08-31T00:47:19;3.83;;;1.02;;
24159;SDS011;62385;41.594;23.808;2023-08-31T00:49:44;2.53;;;1.55;;
24159;SDS011;62385;41.594;23.808;2023-08-31T00:52:10;3.42;;;1.23;;
24159;SDS011;62385;41.594;23.808;2023-08-31T00:54:35;1.65;;;1.30;;
24159;SDS011;62385;41.594;23.808;2023-08-31T00:57:02;1.65;;;0.88;;
24159;SDS011;62385;41.594;23.808;2023-08-31T00:59:28;2.00;;;1.60;;
24159;SDS011;62385;41.594;23.808;2023-08-31T01:04:33;2.42;;;1.52;;
24159;SDS011;62385;41.594;23.808;2023-08-31T01:07:34;2.22;;;1.25;;
24159;SDS011;62385;41.594;23.808;2023-08-31T01:10:27;1.65;;;1.20;;
24159;SDS011;62385;41.594;23.808;2023-08-31T01:13:02;4.88;;;1.40;;
24159;SDS011;62385;41.594;23.808;2023-08-31T01:15:36;1.95;;;1.17;;
24159;SDS011;62385;41.594;23.808;2023-08-31T01:18:05;1.40;;;1.15;;
24159;SDS011;62385;41.594;23.808;2023-08-31T01:20:38;2.05;;;1.48;;
24159;SDS011;62385;41.594;23.808;2023-08-31T01:23:27;1.45;;;0.90;;
24159;SDS011;62385;41.594;23.808;2023-08-31T01:25:57;1.67;;;1.00;;
24159;SDS011;62385;41.594;23.808;2023-08-31T01:28:23;6.55;;;1.30;;
24159;SDS011;62385;41.594;23.808;2023-08-31T01:30:49;4.03;;;1.60;;
24159;SDS011;62385;41.594;23.808;2023-08-31T01:33:14;3.50;;;1.52;;
24159;SDS011;62385;41.594;23.808;2023-08-31T01:35:43;3.72;;;1.70;;
24159;SDS011;62385;41.594;23.808;2023-08-31T01:38:15;4.43;;;1.40;;
24159;SDS011;62385;41.594;23.808;2023-08-31T01:41:01;2.22;;;1.42;;
24159;SDS011;62385;41.594;23.808;2023-08-31T01:43:31;2.25;;;1.63;;
24159;SDS011;62385;41.594;23.808;2023-08-31T01:45:59;2.13;;;1.30;;
24159;SDS011;62385;41.594;23.808;2023-08-31T01:48:25;4.78;;;1.67;;
24159;SDS011;62385;41.594;23.808;2023-08-31T01:50:51;1.42;;;1.13;;
24159;SDS011;62385;41.594;23.808;2023-08-31T01:53:17;2.63;;;1.35;;
24159;SDS011;62385;41.594;23.808;2023-08-31T01:55:43;1.98;;;1.20;;
24159;SDS011;62385;41.594;23.808;2023-08-31T01:58:16;1.00;;;0.90;;
24159;SDS011;62385;41.594;23.808;2023-08-31T02:01:01;3.00;;;1.30;;
24159;SDS011;62385;41.594;23.808;2023-08-31T02:03:27;2.33;;;1.25;;
24159;SDS011;62385;41.594;23.808;2023-08-31T02:05:53;2.03;;;1.13;;
24159;SDS011;62385;41.594;23.808;2023-08-31T02:08:20;1.50;;;0.70;;
24159;SDS011;62385;41.594;23.808;2023-08-31T02:10:46;2.55;;;0.90;;
24159;SDS011;62385;41.594;23.808;2023-08-31T02:13:20;1.95;;;1.25;;
24159;SDS011;62385;41.594;23.808;2023-08-31T02:15:46;1.55;;;1.13;;
24159;SDS011;62385;41.594;23.808;2023-08-31T02:18:16;1.70;;;1.08;;
24159;SDS011;62385;41.594;23.808;2023-08-31T02:20:41;0.75;;;0.63;;
24159;SDS011;62385;41.594;23.808;2023-08-31T02:23:07;2.97;;;1.30;;
24159;SDS011;62385;41.594;23.808;2023-08-31T02:25:35;4.30;;;1.88;;
24159;SDS011;62385;41.594;23.808;2023-08-31T02:28:01;1.40;;;1.00;;
24159;SDS011;62385;41.594;23.808;2023-08-31T02:30:26;2.03;;;1.38;;
24159;SDS011;62385;41.594;23.808;2023-08-31T02:32:52;1.60;;;1.02;;
24159;SDS011;62385;41.594;23.808;2023-08-31T02:35:17;5.20;;;1.63;;
24159;SDS011;62385;41.594;23.808;2023-08-31T02:37:43;2.03;;;1.83;;
24159;SDS011;62385;41.594;23.808;2023-08-31T02:40:09;1.48;;;1.02;;
24159;SDS011;62385;41.594;23.808;2023-08-31T02:42:35;1.75;;;1.00;;
24159;SDS011;62385;41.594;23.808;2023-08-31T02:45:01;4.47;;;1.38;;
24159;SDS011;62385;41.594;23.808;2023-08-31T02:47:27;2.17;;;1.38;;
24159;SDS011;62385;41.594;23.808;2023-08-31T02:49:53;2.03;;;1.27;;
24159;SDS011;62385;41.594;23.808;2023-08-31T02:52:19;8.27;;;1.15;;
24159;SDS011;62385;41.594;23.808;2023-08-31T02:54:44;2.35;;;1.40;;
24159;SDS011;62385;41.594;23.808;2023-08-31T02:57:10;1.90;;;1.10;;
24159;SDS011;62385;41.594;23.808;2023-08-31T02:59:36;1.60;;;1.25;;
24159;SDS011;62385;41.594;23.808;2023-08-31T03:02:02;2.92;;;1.30;;
24159;SDS011;62385;41.594;23.808;2023-08-31T03:04:28;3.20;;;2.00;;
24159;SDS011;62385;41.594;23.808;2023-08-31T03:06:54;2.47;;;1.13;;
24159;SDS011;62385;41.594;23.808;2023-08-31T03:09:20;2.40;;;1.35;;
24159;SDS011;62385;41.594;23.808;2023-08-31T03:11:46;2.60;;;1.60;;
24159;SDS011;62385;41.594;23.808;2023-08-31T03:14:13;4.38;;;2.83;;
24159;SDS011;62385;41.594;23.808;2023-08-31T03:16:40;6.68;;;2.08;;
24159;SDS011;62385;41.594;23.808;2023-08-31T03:19:05;2.53;;;1.38;;
24159;SDS011;62385;41.594;23.808;2023-08-31T03:21:31;3.50;;;1.60;;
24159;SDS011;62385;41.594;23.808;2023-08-31T03:23:56;4.68;;;1.98;;
24159;SDS011;62385;41.594;23.808;2023-08-31T03:26:22;5.80;;;2.03;;
24159;SDS011;62385;41.594;23.808;2023-08-31T03:28:49;2.90;;;1.75;;
24159;SDS011;62385;41.594;23.808;2023-08-31T03:31:15;3.00;;;1.75;;
24159;SDS011;62385;41.594;23.808;2023-08-31T03:33:41;2.95;;;1.63;;
24159;SDS011;62385;41.594;23.808;2023-08-31T03:36:07;2.35;;;1.50;;
24159;SDS011;62385;41.594;23.808;2023-08-31T03:38:33;5.03;;;2.28;;
24159;SDS011;62385;41.594;23.808;2023-08-31T03:41:04;2.28;;;1.30;;
24159;SDS011;62385;41.594;23.808;2023-08-31T03:43:31;5.80;;;1.33;;
24159;SDS011;62385;41.594;23.808;2023-08-31T03:45:57;5.20;;;1.73;;
24159;SDS011;62385;41.594;23.808;2023-08-31T03:48:23;3.75;;;1.50;;
24159;SDS011;62385;41.594;23.808;2023-08-31T03:50:51;1.58;;;1.38;;
24159;SDS011;62385;41.594;23.808;2023-08-31T03:53:18;2.30;;;1.20;;
24159;SDS011;62385;41.594;23.808;2023-08-31T03:55:44;7.38;;;1.77;;
24159;SDS011;62385;41.594;23.808;2023-08-31T03:58:13;1.38;;;1.25;;
24159;SDS011;62385;41.594;23.808;2023-08-31T04:00:41;2.78;;;1.38;;
24159;SDS011;62385;41.594;23.808;2023-08-31T04:03:08;2.88;;;1.98;;
24159;SDS011;62385;41.594;23.808;2023-08-31T04:05:35;2.13;;;1.48;;
24159;SDS011;62385;41.594;23.808;2023-08-31T04:08:02;6.53;;;1.05;;
24159;SDS011;62385;41.594;23.808;2023-08-31T04:10:27;3.70;;;0.90;;
24159;SDS011;62385;41.594;23.808;2023-08-31T04:12:55;1.90;;;1.40;;
24159;SDS011;62385;41.594;23.808;2023-08-31T04:15:21;2.67;;;1.55;;
24159;SDS011;62385;41.594;23.808;2023-08-31T04:17:46;3.20;;;1.30;;
24159;SDS011;62385;41.594;23.808;2023-08-31T04:20:12;2.63;;;1.48;;
24159;SDS011;62385;41.594;23.808;2023-08-31T04:22:37;1.77;;;1.20;;
24159;SDS011;62385;41.594;23.808;2023-08-31T04:25:04;2.58;;;1.40;;
24159;SDS011;62385;41.594;23.808;2023-08-31T04:27:29;2.72;;;1.45;;
24159;SDS011;62385;41.594;23.808;2023-08-31T04:29:57;2.75;;;1.10;;
24159;SDS011;62385;41.594;23.808;2023-08-31T04:32:24;2.90;;;1.33;;
24159;SDS011;62385;41.594;23.808;2023-08-31T04:34:50;1.40;;;1.15;;
24159;SDS011;62385;41.594;23.808;2023-08-31T04:37:16;2.38;;;1.42;;
24159;SDS011;62385;41.594;23.808;2023-08-31T04:39:42;3.05;;;1.65;;
24159;SDS011;62385;41.594;23.808;2023-08-31T04:42:08;3.47;;;2.08;;
24159;SDS011;62385;41.594;23.808;2023-08-31T04:44:34;2.05;;;1.42;;
24159;SDS011;62385;41.594;23.808;2023-08-31T04:47:00;4.15;;;1.77;;
24159;SDS011;62385;41.594;23.808;2023-08-31T04:49:26;3.22;;;1.60;;
24159;SDS011;62385;41.594;23.808;2023-08-31T04:51:52;3.58;;;1.95;;
24159;SDS011;62385;41.594;23.808;2023-08-31T04:54:17;3.05;;;1.63;;
24159;SDS011;62385;41.594;23.808;2023-08-31T04:56:43;2.55;;;1.52;;
24159;SDS011;62385;41.594;23.808;2023-08-31T04:59:09;2.88;;;1.50;;
24159;SDS011;62385;41.594;23.808;2023-08-31T05:01:34;2.10;;;1.30;;
24159;SDS011;62385;41.594;23.808;2023-08-31T05:04:00;3.45;;;1.23;;
24159;SDS011;62385;41.594;23.808;2023-08-31T05:06:25;3.15;;;1.25;;
24159;SDS011;62385;41.594;23.808;2023-08-31T05:08:52;1.88;;;1.38;;
24159;SDS011;62385;41.594;23.808;2023-08-31T05:11:17;1.92;;;1.33;;
24159;SDS011;62385;41.594;23.808;2023-08-31T05:13:43;2.40;;;1.30;;
24159;SDS011;62385;41.594;23.808;2023-08-31T05:16:09;2.92;;;1.40;;
24159;SDS011;62385;41.594;23.808;2023-08-31T05:18:36;1.13;;;0.98;;
24159;SDS011;62385;41.594;23.808;2023-08-31T05:21:02;3.47;;;1.63;;
24159;SDS011;62385;41.594;23.808;2023-08-31T05:23:29;1.02;;;0.90;;
24159;SDS011;62385;41.594;23.808;2023-08-31T05:25:55;2.72;;;1.42;;
24159;SDS011;62385;41.594;23.808;2023-08-31T05:28:26;2.00;;;1.50;;
24159;SDS011;62385;41.594;23.808;2023-08-31T05:30:53;1.98;;;1.17;;
24159;SDS011;62385;41.594;23.808;2023-08-31T05:33:21;2.40;;;1.58;;
24159;SDS011;62385;41.594;23.808;2023-08-31T05:35:47;3.70;;;1.52;;
24159;SDS011;62385;41.594;23.808;2023-08-31T05:38:13;2.45;;;1.45;;
24159;SDS011;62385;41.594;23.808;2023-08-31T05:40:39;1.80;;;1.38;;
24159;SDS011;62385;41.594;23.808;2023-08-31T05:43:05;5.45;;;1.80;;
24159;SDS011;62385;41.594;23.808;2023-08-31T05:45:32;3.70;;;1.58;;
24159;SDS011;62385;41.594;23.808;2023-08-31T05:47:58;3.50;;;1.75;;
24159;SDS011;62385;41.594;23.808;2023-08-31T05:50:23;2.45;;;1.40;;
24159;SDS011;62385;41.594;23.808;2023-08-31T05:52:49;4.68;;;1.58;;
24159;SDS011;62385;41.594;23.808;2023-08-31T05:55:14;6.38;;;1.52;;
24159;SDS011;62385;41.594;23.808;2023-08-31T05:57:40;5.35;;;1.83;;
24159;SDS011;62385;41.594;23.808;2023-08-31T06:00:06;1.73;;;1.20;;
24159;SDS011;62385;41.594;23.808;2023-08-31T06:02:37;5.18;;;2.03;;
24159;SDS011;62385;41.594;23.808;2023-08-31T06:05:03;3.25;;;2.25;;
24159;SDS011;62385;41.594;23.808;2023-08-31T06:07:29;4.28;;;1.80;;
24159;SDS011;62385;41.594;23.808;2023-08-31T06:09:55;3.25;;;2.13;;
24159;SDS011;62385;41.594;23.808;2023-08-31T06:12:21;3.92;;;2.28;;
24159;SDS011;62385;41.594;23.808;2023-08-31T06:14:47;2.42;;;1.77;;
24159;SDS011;62385;41.594;23.808;2023-08-31T06:17:12;14.38;;;2.33;;
24159;SDS011;62385;41.594;23.808;2023-08-31T06:19:38;2.88;;;1.83;;
24159;SDS011;62385;41.594;23.808;2023-08-31T06:22:04;3.22;;;1.67;;
24159;SDS011;62385;41.594;23.808;2023-08-31T06:24:30;2.10;;;1.48;;
24159;SDS011;62385;41.594;23.808;2023-08-31T06:26:55;1.63;;;1.30;;
24159;SDS011;62385;41.594;23.808;2023-08-31T06:29:22;1.90;;;1.23;;
24159;SDS011;62385;41.594;23.808;2023-08-31T06:31:47;2.10;;;1.33;;
24159;SDS011;62385;41.594;23.808;2023-08-31T06:34:13;4.50;;;1.95;;
24159;SDS011;62385;41.594;23.808;2023-08-31T06:36:38;3.78;;;1.83;;
24159;SDS011;62385;41.594;23.808;2023-08-31T06:39:06;3.05;;;1.85;;
24159;SDS011;62385;41.594;23.808;2023-08-31T06:41:32;3.97;;;1.90;;
24159;SDS011;62385;41.594;23.808;2023-08-31T06:43:58;4.40;;;1.45;;
24159;SDS011;62385;41.594;23.808;2023-08-31T06:46:23;2.72;;;1.42;;
24159;SDS011;62385;41.594;23.808;2023-08-31T06:48:49;1.98;;;1.55;;
24159;SDS011;62385;41.594;23.808;2023-08-31T06:51:14;3.92;;;1.98;;
24159;SDS011;62385;41.594;23.808;2023-08-31T06:53:43;2.85;;;1.83;;
24159;SDS011;62385;41.594;23.808;2023-08-31T06:56:09;8.15;;;1.90;;
24159;SDS011;62385;41.594;23.808;2023-08-31T06:58:35;4.53;;;1.48;;
24159;SDS011;62385;41.594;23.808;2023-08-31T07:01:00;1.20;;;1.05;;
24159;SDS011;62385;41.594;23.808;2023-08-31T07:03:26;2.40;;;1.30;;
24159;SDS011;62385;41.594;23.808;2023-08-31T07:05:52;2.05;;;1.40;;
24159;SDS011;62385;41.594;23.808;2023-08-31T07:08:17;1.17;;;0.90;;
24159;SDS011;62385;41.594;23.808;2023-08-31T07:10:43;2.15;;;1.38;;
24159;SDS011;62385;41.594;23.808;2023-08-31T07:13:08;1.40;;;0.80;;
24159;SDS011;62385;41.594;23.808;2023-08-31T07:15:34;1.27;;;0.93;;
24159;SDS011;62385;41.594;23.808;2023-08-31T07:17:59;2.58;;;1.52;;
24159;SDS011;62385;41.594;23.808;2023-08-31T07:20:25;9.60;;;1.80;;
24159;SDS011;62385;41.594;23.808;2023-08-31T07:22:51;1.65;;;1.10;;
24159;SDS011;62385;41.594;23.808;2023-08-31T07:25:16;1.40;;;0.95;;
24159;SDS011;62385;41.594;23.808;2023-08-31T07:27:42;1.15;;;1.05;;
24159;SDS011;62385;41.594;23.808;2023-08-31T07:30:08;1.35;;;0.77;;
24159;SDS011;62385;41.594;23.808;2023-08-31T07:32:35;1.55;;;1.23;;
24159;SDS011;62385;41.594;23.808;2023-08-31T07:35:00;1.60;;;1.10;;
24159;SDS011;62385;41.594;23.808;2023-08-31T07:37:26;1.08;;;0.85;;
24159;SDS011;62385;41.594;23.808;2023-08-31T07:39:51;2.10;;;1.13;;
24159;SDS011;62385;41.594;23.808;2023-08-31T07:42:17;3.15;;;1.30;;
24159;SDS011;62385;41.594;23.808;2023-08-31T07:44:42;2.35;;;1.20;;
24159;SDS011;62385;41.594;23.808;2023-08-31T07:47:09;3.35;;;1.02;;
24159;SDS011;62385;41.594;23.808;2023-08-31T07:49:35;0.98;;;0.63;;
24159;SDS011;62385;41.594;23.808;2023-08-31T07:52:01;0.63;;;0.50;;
24159;SDS011;62385;41.594;23.808;2023-08-31T07:54:28;0.90;;;0.60;;
24159;SDS011;62385;41.594;23.808;2023-08-31T07:56:53;1.95;;;1.13;;
24159;SDS011;62385;41.594;23.808;2023-08-31T07:59:19;2.42;;;1.30;;
24159;SDS011;62385;41.594;23.808;2023-08-31T08:01:45;2.80;;;1.30;;
24159;SDS011;62385;41.594;23.808;2023-08-31T08:04:11;1.25;;;0.88;;
24159;SDS011;62385;41.594;23.808;2023-08-31T08:06:37;0.70;;;0.70;;
24159;SDS011;62385;41.594;23.808;2023-08-31T08:09:03;2.10;;;1.65;;
24159;SDS011;62385;41.594;23.808;2023-08-31T08:11:31;2.65;;;1.15;;
24159;SDS011;62385;41.594;23.808;2023-08-31T08:13:56;4.50;;;1.17;;
24159;SDS011;62385;41.594;23.808;2023-08-31T08:16:23;1.75;;;1.20;;
24159;SDS011;62385;41.594;23.808;2023-08-31T08:18:49;5.38;;;0.77;;
24159;SDS011;62385;41.594;23.808;2023-08-31T08:21:15;1.88;;;1.23;;
24159;SDS011;62385;41.594;23.808;2023-08-31T08:23:40;4.07;;;1.15;;
24159;SDS011;62385;41.594;23.808;2023-08-31T08:26:06;2.08;;;1.17;;
24159;SDS011;62385;41.594;23.808;2023-08-31T08:28:31;1.75;;;0.93;;
24159;SDS011;62385;41.594;23.808;2023-08-31T08:31:00;2.75;;;1.23;;
24159;SDS011;62385;41.594;23.808;2023-08-31T08:33:29;2.75;;;0.95;;
24159;SDS011;62385;41.594;23.808;2023-08-31T08:35:58;1.15;;;0.88;;
24159;SDS011;62385;41.594;23.808;2023-08-31T08:38:25;1.70;;;1.45;;
24159;SDS011;62385;41.594;23.808;2023-08-31T08:40:50;1.67;;;0.80;;
24159;SDS011;62385;41.594;23.808;2023-08-31T08:43:16;1.25;;;0.95;;
24159;SDS011;62385;41.594;23.808;2023-08-31T08:45:50;4.57;;;0.73;;
24159;SDS011;62385;41.594;23.808;2023-08-31T08:48:16;4.43;;;1.13;;
24159;SDS011;62385;41.594;23.808;2023-08-31T08:50:43;0.95;;;0.80;;
24159;SDS011;62385;41.594;23.808;2023-08-31T08:53:10;1.88;;;1.25;;
24159;SDS011;62385;41.594;23.808;2023-08-31T08:55:36;2.83;;;1.65;;
24159;SDS011;62385;41.594;23.808;2023-08-31T08:58:02;2.42;;;1.05;;
24159;SDS011;62385;41.594;23.808;2023-08-31T09:00:31;13.63;;;1.52;;
24159;SDS011;62385;41.594;23.808;2023-08-31T09:02:59;2.00;;;1.25;;
24159;SDS011;62385;41.594;23.808;2023-08-31T09:05:31;1.00;;;0.77;;
24159;SDS011;62385;41.594;23.808;2023-08-31T09:08:00;2.83;;;0.93;;
24159;SDS011;62385;41.594;23.808;2023-08-31T09:10:33;1.48;;;0.95;;
24159;SDS011;62385;41.594;23.808;2023-08-31T09:13:09;1.95;;;0.93;;
24159;SDS011;62385;41.594;23.808;2023-08-31T09:15:36;4.40;;;0.80;;
24159;SDS011;62385;41.594;23.808;2023-08-31T09:18:04;2.88;;;2.20;;
24159;SDS011;62385;41.594;23.808;2023-08-31T09:20:30;2.15;;;1.13;;
24159;SDS011;62385;41.594;23.808;2023-08-31T09:22:55;4.68;;;2.22;;
24159;SDS011;62385;41.594;23.808;2023-08-31T09:25:21;3.35;;;1.38;;
24159;SDS011;62385;41.594;23.808;2023-08-31T09:27:47;2.50;;;0.80;;
24159;SDS011;62385;41.594;23.808;2023-08-31T09:30:13;1.60;;;0.65;;
24159;SDS011;62385;41.594;23.808;2023-08-31T09:32:39;2.63;;;0.60;;
24159;SDS011;62385;41.594;23.808;2023-08-31T09:35:10;1.33;;;0.68;;
24159;SDS011;62385;41.594;23.808;2023-08-31T09:37:36;2.00;;;0.90;;
24159;SDS011;62385;41.594;23.808;2023-08-31T09:40:02;1.30;;;0.88;;
24159;SDS011;62385;41.594;23.808;2023-08-31T09:42:37;6.03;;;1.73;;
24159;SDS011;62385;41.594;23.808;2023-08-31T09:45:04;3.60;;;1.73;;
24159;SDS011;62385;41.594;23.808;2023-08-31T09:47:30;7.45;;;0.95;;
24159;SDS011;62385;41.594;23.808;2023-08-31T09:49:57;1.42;;;0.65;;
24159;SDS011;62385;41.594;23.808;2023-08-31T09:52:23;1.88;;;1.00;;
24159;SDS011;62385;41.594;23.808;2023-08-31T09:54:50;1.27;;;0.90;;
24159;SDS011;62385;41.594;23.808;2023-08-31T09:57:18;1.17;;;0.65;;
24159;SDS011;62385;41.594;23.808;2023-08-31T09:59:46;0.77;;;0.32;;
24159;SDS011;62385;41.594;23.808;2023-08-31T10:02:12;2.17;;;0.60;;
24159;SDS011;62385;41.594;23.808;2023-08-31T10:04:41;2.03;;;0.73;;
24159;SDS011;62385;41.594;23.808;2023-08-31T10:07:07;4.30;;;0.60;;
24159;SDS011;62385;41.594;23.808;2023-08-31T10:09:36;1.70;;;1.00;;
24159;SDS011;62385;41.594;23.808;2023-08-31T10:12:05;1.35;;;0.90;;
24159;SDS011;62385;41.594;23.808;2023-08-31T10:14:33;5.50;;;1.10;;
24159;SDS011;62385;41.594;23.808;2023-08-31T10:16:59;1.52;;;0.68;;
24159;SDS011;62385;41.594;23.808;2023-08-31T10:19:26;1.00;;;0.68;;
24159;SDS011;62385;41.594;23.808;2023-08-31T10:21:51;1.65;;;0.73;;
24159;SDS011;62385;41.594;23.808;2023-08-31T10:24:17;1.88;;;0.77;;
24159;SDS011;62385;41.594;23.808;2023-08-31T10:26:43;0.90;;;0.73;;
24159;SDS011;62385;41.594;23.808;2023-08-31T10:29:25;2.17;;;1.02;;
24159;SDS011;62385;41.594;23.808;2023-08-31T10:31:52;1.83;;;0.60;;
24159;SDS011;62385;41.594;23.808;2023-08-31T10:34:18;1.23;;;0.90;;
24159;SDS011;62385;41.594;23.808;2023-08-31T10:37:00;1.05;;;0.70;;
24159;SDS011;62385;41.594;23.808;2023-08-31T10:39:37;1.27;;;0.82;;
24159;SDS011;62385;41.594;23.808;2023-08-31T10:42:03;1.35;;;0.70;;
24159;SDS011;62385;41.594;23.808;2023-08-31T10:44:32;2.15;;;0.77;;
24159;SDS011;62385;41.594;23.808;2023-08-31T10:47:03;0.80;;;0.60;;
24159;SDS011;62385;41.594;23.808;2023-08-31T10:49:29;0.98;;;0.50;;
24159;SDS011;62385;41.594;23.808;2023-08-31T10:51:56;1.05;;;0.95;;
24159;SDS011;62385;41.594;23.808;2023-08-31T10:57:03;1.75;;;0.82;;
24159;SDS011;62385;41.594;23.808;2023-08-31T11:02:26;1.42;;;0.75;;
24159;SDS011;62385;41.594;23.808;2023-08-31T11:07:39;0.98;;;0.60;;
24159;SDS011;62385;41.594;23.808;2023-08-31T11:12:32;0.73;;;0.43;;
24159;SDS011;62385;41.594;23.808;2023-08-31T11:14:57;2.95;;;1.20;;
24159;SDS011;62385;41.594;23.808;2023-08-31T11:17:23;1.48;;;0.70;;
24159;SDS011;62385;41.594;23.808;2023-08-31T11:19:49;0.63;;;0.50;;
24159;SDS011;62385;41.594;23.808;2023-08-31T11:22:15;1.08;;;0.68;;
24159;SDS011;62385;41.594;23.808;2023-08-31T11:24:41;3.67;;;0.63;;
24159;SDS011;62385;41.594;23.808;2023-08-31T11:27:07;1.42;;;0.70;;
24159;SDS011;62385;41.594;23.808;2023-08-31T11:29:53;1.27;;;0.63;;
24159;SDS011;62385;41.594;23.808;2023-08-31T11:32:18;1.40;;;0.80;;
24159;SDS011;62385;41.594;23.808;2023-08-31T11:34:44;0.85;;;0.52;;
24159;SDS011;62385;41.594;23.808;2023-08-31T11:37:11;0.85;;;0.70;;
24159;SDS011;62385;41.594;23.808;2023-08-31T11:40:00;1.92;;;0.70;;
24159;SDS011;62385;41.594;23.808;2023-08-31T11:42:26;3.58;;;0.65;;
24159;SDS011;62385;41.594;23.808;2023-08-31T11:44:52;1.52;;;0.50;;
24159;SDS011;62385;41.594;23.808;2023-08-31T11:47:20;1.35;;;0.70;;
24159;SDS011;62385;41.594;23.808;2023-08-31T11:49:46;1.65;;;0.80;;
24159;SDS011;62385;41.594;23.808;2023-08-31T11:52:13;4.30;;;0.95;;
24159;SDS011;62385;41.594;23.808;2023-08-31T11:54:41;3.38;;;1.23;;
24159;SDS011;62385;41.594;23.808;2023-08-31T11:57:07;0.70;;;0.57;;
24159;SDS011;62385;41.594;23.808;2023-08-31T11:59:34;2.85;;;0.80;;
24159;SDS011;62385;41.594;23.808;2023-08-31T12:02:05;1.45;;;0.88;;
24159;SDS011;62385;41.594;23.808;2023-08-31T12:04:32;0.85;;;0.50;;
24159;SDS011;62385;41.594;23.808;2023-08-31T12:07:01;2.45;;;1.05;;
24159;SDS011;62385;41.594;23.808;2023-08-31T12:09:32;2.10;;;0.90;;
24159;SDS011;62385;41.594;23.808;2023-08-31T12:11:57;1.88;;;0.77;;
24159;SDS011;62385;41.594;23.808;2023-08-31T12:14:43;2.38;;;0.88;;
24159;SDS011;62385;41.594;23.808;2023-08-31T12:17:09;1.58;;;0.90;;
24159;SDS011;62385;41.594;23.808;2023-08-31T12:19:36;1.38;;;1.00;;
24159;SDS011;62385;41.594;23.808;2023-08-31T12:22:05;2.05;;;0.95;;
24159;SDS011;62385;41.594;23.808;2023-08-31T12:24:38;1.33;;;0.65;;
24159;SDS011;62385;41.594;23.808;2023-08-31T12:27:07;1.10;;;0.90;;
24159;SDS011;62385;41.594;23.808;2023-08-31T12:29:35;3.38;;;0.68;;
24159;SDS011;62385;41.594;23.808;2023-08-31T12:32:00;1.77;;;0.80;;
24159;SDS011;62385;41.594;23.808;2023-08-31T12:34:26;1.50;;;1.00;;
24159;SDS011;62385;41.594;23.808;2023-08-31T12:36:52;2.05;;;1.23;;
24159;SDS011;62385;41.594;23.808;2023-08-31T12:39:17;1.40;;;0.73;;
24159;SDS011;62385;41.594;23.808;2023-08-31T12:41:43;1.55;;;0.80;;
24159;SDS011;62385;41.594;23.808;2023-08-31T12:44:09;4.22;;;0.95;;
24159;SDS011;62385;41.594;23.808;2023-08-31T12:46:34;0.70;;;0.60;;
24159;SDS011;62385;41.594;23.808;2023-08-31T12:49:00;1.27;;;0.82;;
24159;SDS011;62385;41.594;23.808;2023-08-31T12:51:28;1.92;;;0.90;;
24159;SDS011;62385;41.594;23.808;2023-08-31T12:53:54;1.92;;;0.82;;
24159;SDS011;62385;41.594;23.808;2023-08-31T12:56:21;1.08;;;0.90;;
24159;SDS011;62385;41.594;23.808;2023-08-31T12:58:53;1.83;;;1.38;;
24159;SDS011;62385;41.594;23.808;2023-08-31T13:01:20;2.75;;;2.30;;
24159;SDS011;62385;41.594;23.808;2023-08-31T13:03:46;1.42;;;0.82;;
24159;SDS011;62385;41.594;23.808;2023-08-31T13:06:15;1.50;;;0.95;;
24159;SDS011;62385;41.594;23.808;2023-08-31T13:08:42;1.52;;;0.85;;
24159;SDS011;62385;41.594;23.808;2023-08-31T13:11:09;1.55;;;0.90;;
24159;SDS011;62385;41.594;23.808;2023-08-31T13:13:35;1.73;;;0.90;;
24159;SDS011;62385;41.594;23.808;2023-08-31T13:16:02;3.28;;;0.70;;
24159;SDS011;62385;41.594;23.808;2023-08-31T13:18:28;2.25;;;0.98;;
24159;SDS011;62385;41.594;23.808;2023-08-31T13:20:54;1.98;;;0.75;;
24159;SDS011;62385;41.594;23.808;2023-08-31T13:23:21;1.48;;;0.85;;
24159;SDS011;62385;41.594;23.808;2023-08-31T13:25:47;1.20;;;1.00;;
24159;SDS011;62385;41.594;23.808;2023-08-31T13:28:13;4.25;;;0.90;;
24159;SDS011;62385;41.594;23.808;2023-08-31T13:30:39;1.90;;;0.93;;
24159;SDS011;62385;41.594;23.808;2023-08-31T13:33:05;1.67;;;0.70;;
24159;SDS011;62385;41.594;23.808;2023-08-31T13:35:32;2.65;;;1.02;;
24159;SDS011;62385;41.594;23.808;2023-08-31T13:37:57;1.10;;;0.70;;
24159;SDS011;62385;41.594;23.808;2023-08-31T13:40:23;2.05;;;1.08;;
24159;SDS011;62385;41.594;23.808;2023-08-31T13:42:58;1.67;;;0.82;;
24159;SDS011;62385;41.594;23.808;2023-08-31T13:45:34;1.38;;;0.60;;
24159;SDS011;62385;41.594;23.808;2023-08-31T13:48:00;1.13;;;0.63;;
24159;SDS011;62385;41.594;23.808;2023-08-31T13:50:29;1.98;;;1.23;;
24159;SDS011;62385;41.594;23.808;2023-08-31T13:52:55;2.00;;;0.75;;
24159;SDS011;62385;41.594;23.808;2023-08-31T13:55:21;1.20;;;0.88;;
24159;SDS011;62385;41.594;23.808;2023-08-31T13:57:48;1.52;;;1.10;;
24159;SDS011;62385;41.594;23.808;2023-08-31T14:00:15;0.88;;;0.60;;
24159;SDS011;62385;41.594;23.808;2023-08-31T14:02:42;1.02;;;0.85;;
24159;SDS011;62385;41.594;23.808;2023-08-31T14:05:08;1.65;;;0.80;;
24159;SDS011;62385;41.594;23.808;2023-08-31T14:07:38;1.15;;;0.55;;
24159;SDS011;62385;41.594;23.808;2023-08-31T14:10:04;2.30;;;0.70;;
24159;SDS011;62385;41.594;23.808;2023-08-31T14:12:31;1.50;;;0.98;;
24159;SDS011;62385;41.594;23.808;2023-08-31T14:14:58;1.25;;;0.68;;
24159;SDS011;62385;41.594;23.808;2023-08-31T14:17:24;2.40;;;0.93;;
24159;SDS011;62385;41.594;23.808;2023-08-31T14:19:49;1.60;;;0.80;;
24159;SDS011;62385;41.594;23.808;2023-08-31T14:22:15;1.33;;;0.60;;
24159;SDS011;62385;41.594;23.808;2023-08-31T14:24:40;2.05;;;0.80;;
24159;SDS011;62385;41.594;23.808;2023-08-31T14:27:06;0.95;;;0.82;;
24159;SDS011;62385;41.594;23.808;2023-08-31T14:29:33;1.70;;;0.65;;
24159;SDS011;62385;41.594;23.808;2023-08-31T14:32:00;5.93;;;0.95;;
24159;SDS011;62385;41.594;23.808;2023-08-31T14:34:25;1.00;;;0.50;;
24159;SDS011;62385;41.594;23.808;2023-08-31T14:36:51;3.88;;;0.80;;
24159;SDS011;62385;41.594;23.808;2023-08-31T14:39:17;0.93;;;0.70;;
24159;SDS011;62385;41.594;23.808;2023-08-31T14:41:43;1.20;;;0.82;;
24159;SDS011;62385;41.594;23.808;2023-08-31T14:44:08;1.45;;;0.82;;
24159;SDS011;62385;41.594;23.808;2023-08-31T14:46:34;3.75;;;0.98;;